sensor_id;sensor_type;location;lat;lon;timestamp;pressure;altitude;pressure_sealevel;temperature;humidity
62333;BME280;48624;49.812;8.562;2023-06-14T00:01:31;100165.78;;;17.01;49.23
62333;BME280;48624;49.812;8.562;2023-06-14T00:03:57;100168.31;;;17.02;48.90
62333;BME280;48624;49.812;8.562;2023-06-14T00:06:22;100162.78;;;17.22;47.80
62333;BME280;48624;49.812;8.562;2023-06-14T00:08:49;100165.69;;;17.29;48.17
62333;BME280;48624;49.812;8.562;2023-06-14T00:11:14;100157.84;;;17.36;47.51
62333;BME280;48624;49.812;8.562;2023-06-14T00:13:40;100160.38;;;17.37;47.36
62333;BME280;48624;49.812;8.562;2023-06-14T00:16:06;100156.06;;;17.18;47.79
62333;BME280;48624;49.812;8.562;2023-06-14T00:18:31;100154.03;;;17.38;46.86
62333;BME280;48624;49.812;8.562;2023-06-14T00:20:57;100158.31;;;17.49;46.26
62333;BME280;48624;49.812;8.562;2023-06-14T00:23:22;100160.13;;;17.48;46.72
62333;BME280;48624;49.812;8.562;2023-06-14T00:25:47;100148.94;;;17.53;46.09
62333;BME280;48624;49.812;8.562;2023-06-14T00:28:13;100154.81;;;17.30;47.13
62333;BME280;48624;49.812;8.562;2023-06-14T00:30:38;100147.84;;;17.38;46.82
62333;BME280;48624;49.812;8.562;2023-06-14T00:33:03;100148.38;;;17.41;46.69
62333;BME280;48624;49.812;8.562;2023-06-14T00:35:29;100154.41;;;17.17;47.83
62333;BME280;48624;49.812;8.562;2023-06-14T00:37:54;100143.59;;;17.27;47.39
62333;BME280;48624;49.812;8.562;2023-06-14T00:40:20;100152.88;;;17.41;46.48
62333;BME280;48624;49.812;8.562;2023-06-14T00:42:46;100149.53;;;17.20;47.62
62333;BME280;48624;49.812;8.562;2023-06-14T00:45:12;100151.09;;;17.23;47.00
62333;BME280;48624;49.812;8.562;2023-06-14T00:47:38;100148.94;;;17.27;46.58
62333;BME280;48624;49.812;8.562;2023-06-14T00:50:06;100147.94;;;17.28;46.62
62333;BME280;48624;49.812;8.562;2023-06-14T00:52:32;100149.19;;;17.15;47.12
62333;BME280;48624;49.812;8.562;2023-06-14T00:54:57;100151.47;;;17.10;46.96
62333;BME280;48624;49.812;8.562;2023-06-14T00:57:23;100161.81;;;17.05;47.00
62333;BME280;48624;49.812;8.562;2023-06-14T00:59:49;100165.91;;;16.99;47.43
62333;BME280;48624;49.812;8.562;2023-06-14T01:02:15;100165.50;;;17.04;47.29
62333;BME280;48624;49.812;8.562;2023-06-14T01:04:42;100154.16;;;17.10;46.96
62333;BME280;48624;49.812;8.562;2023-06-14T01:09:58;100158.59;;;17.01;47.22
62333;BME280;48624;49.812;8.562;2023-06-14T01:15:06;100161.81;;;17.05;47.05
62333;BME280;48624;49.812;8.562;2023-06-14T01:17:32;100162.34;;;17.09;47.39
62333;BME280;48624;49.812;8.562;2023-06-14T01:20:01;100162.34;;;17.09;47.10
62333;BME280;48624;49.812;8.562;2023-06-14T01:22:26;100159.19;;;16.95;47.54
62333;BME280;48624;49.812;8.562;2023-06-14T01:24:52;100161.78;;;16.69;48.35
62333;BME280;48624;49.812;8.562;2023-06-14T01:27:23;100172.69;;;16.75;48.16
62333;BME280;48624;49.812;8.562;2023-06-14T01:29:53;100169.75;;;16.97;47.31
62333;BME280;48624;49.812;8.562;2023-06-14T01:32:23;100168.50;;;16.73;48.17
62333;BME280;48624;49.812;8.562;2023-06-14T01:34:48;100164.00;;;16.91;47.47
62333;BME280;48624;49.812;8.562;2023-06-14T01:37:14;100169.00;;;17.04;46.79
62333;BME280;48624;49.812;8.562;2023-06-14T01:39:40;100171.63;;;16.68;48.15
62333;BME280;48624;49.812;8.562;2023-06-14T01:42:07;100163.31;;;16.71;48.36
62333;BME280;48624;49.812;8.562;2023-06-14T01:44:33;100172.69;;;16.57;48.44
62333;BME280;48624;49.812;8.562;2023-06-14T01:46:58;100175.28;;;16.67;47.94
62333;BME280;48624;49.812;8.562;2023-06-14T01:49:23;100173.44;;;16.49;49.41
62333;BME280;48624;49.812;8.562;2023-06-14T01:51:49;100173.44;;;16.21;49.97
62333;BME280;48624;49.812;8.562;2023-06-14T01:54:14;100177.72;;;16.42;49.09
62333;BME280;48624;49.812;8.562;2023-06-14T01:56:39;100177.06;;;16.30;49.70
62333;BME280;48624;49.812;8.562;2023-06-14T01:59:05;100168.28;;;16.10;50.37
62333;BME280;48624;49.812;8.562;2023-06-14T02:01:30;100174.44;;;16.20;50.27
62333;BME280;48624;49.812;8.562;2023-06-14T02:03:56;100179.94;;;16.19;50.15
62333;BME280;48624;49.812;8.562;2023-06-14T02:06:21;100166.50;;;16.01;51.13
62333;BME280;48624;49.812;8.562;2023-06-14T02:08:46;100173.25;;;16.05;51.22
62333;BME280;48624;49.812;8.562;2023-06-14T02:11:12;100175.63;;;15.98;51.54
62333;BME280;48624;49.812;8.562;2023-06-14T02:13:37;100178.63;;;15.95;52.76
62333;BME280;48624;49.812;8.562;2023-06-14T02:16:02;100179.63;;;15.84;53.17
62333;BME280;48624;49.812;8.562;2023-06-14T02:18:27;100180.38;;;15.66;53.95
62333;BME280;48624;49.812;8.562;2023-06-14T02:20:53;100190.31;;;15.64;54.20
62333;BME280;48624;49.812;8.562;2023-06-14T02:23:18;100183.59;;;15.50;55.30
62333;BME280;48624;49.812;8.562;2023-06-14T02:25:44;100188.56;;;15.35;56.53
62333;BME280;48624;49.812;8.562;2023-06-14T02:28:11;100190.81;;;15.20;57.38
62333;BME280;48624;49.812;8.562;2023-06-14T02:30:36;100190.25;;;15.17;56.74
62333;BME280;48624;49.812;8.562;2023-06-14T02:33:02;100182.66;;;15.22;56.89
62333;BME280;48624;49.812;8.562;2023-06-14T02:35:28;100188.56;;;15.16;57.50
62333;BME280;48624;49.812;8.562;2023-06-14T02:37:53;100182.97;;;15.09;57.67
62333;BME280;48624;49.812;8.562;2023-06-14T02:40:19;100181.25;;;14.88;58.14
62333;BME280;48624;49.812;8.562;2023-06-14T02:42:46;100185.75;;;15.07;56.91
62333;BME280;48624;49.812;8.562;2023-06-14T02:45:11;100191.22;;;14.96;57.82
62333;BME280;48624;49.812;8.562;2023-06-14T02:47:36;100191.53;;;14.93;56.90
62333;BME280;48624;49.812;8.562;2023-06-14T02:50:02;100188.69;;;14.84;57.32
62333;BME280;48624;49.812;8.562;2023-06-14T02:52:29;100192.22;;;14.95;57.01
62333;BME280;48624;49.812;8.562;2023-06-14T02:54:54;100199.09;;;14.97;56.85
62333;BME280;48624;49.812;8.562;2023-06-14T02:57:21;100194.19;;;15.12;56.05
62333;BME280;48624;49.812;8.562;2023-06-14T02:59:46;100195.19;;;15.11;55.85
62333;BME280;48624;49.812;8.562;2023-06-14T03:02:12;100195.75;;;15.15;56.33
62333;BME280;48624;49.812;8.562;2023-06-14T03:04:37;100194.47;;;15.09;55.65
62333;BME280;48624;49.812;8.562;2023-06-14T03:07:03;100196.00;;;15.12;55.71
62333;BME280;48624;49.812;8.562;2023-06-14T03:09:35;100195.31;;;15.10;55.76
62333;BME280;48624;49.812;8.562;2023-06-14T03:12:02;100212.59;;;15.06;56.27
62333;BME280;48624;49.812;8.562;2023-06-14T03:14:28;100206.41;;;14.95;56.56
62333;BME280;48624;49.812;8.562;2023-06-14T03:16:54;100217.50;;;14.91;57.26
62333;BME280;48624;49.812;8.562;2023-06-14T03:19:23;100219.59;;;14.87;57.18
62333;BME280;48624;49.812;8.562;2023-06-14T03:21:48;100212.66;;;14.75;57.88
62333;BME280;48624;49.812;8.562;2023-06-14T03:24:14;100224.75;;;14.79;57.84
62333;BME280;48624;49.812;8.562;2023-06-14T03:26:41;100223.38;;;14.84;57.40
62333;BME280;48624;49.812;8.562;2023-06-14T03:29:07;100229.28;;;14.98;56.83
62333;BME280;48624;49.812;8.562;2023-06-14T03:31:32;100230.81;;;14.91;56.60
62333;BME280;48624;49.812;8.562;2023-06-14T03:33:58;100238.94;;;14.79;57.01
62333;BME280;48624;49.812;8.562;2023-06-14T03:36:23;100237.91;;;14.70;57.23
62333;BME280;48624;49.812;8.562;2023-06-14T03:38:48;100242.34;;;15.01;56.32
62333;BME280;48624;49.812;8.562;2023-06-14T03:41:14;100230.38;;;14.86;56.95
62333;BME280;48624;49.812;8.562;2023-06-14T03:43:39;100243.44;;;14.89;57.05
62333;BME280;48624;49.812;8.562;2023-06-14T03:46:04;100249.63;;;14.89;57.02
62333;BME280;48624;49.812;8.562;2023-06-14T03:48:30;100255.00;;;14.99;56.63
62333;BME280;48624;49.812;8.562;2023-06-14T03:50:55;100254.31;;;15.26;55.50
62333;BME280;48624;49.812;8.562;2023-06-14T03:53:21;100258.38;;;15.31;55.72
62333;BME280;48624;49.812;8.562;2023-06-14T03:55:49;100265.38;;;15.12;56.41
62333;BME280;48624;49.812;8.562;2023-06-14T03:58:15;100269.31;;;15.08;56.68
62333;BME280;48624;49.812;8.562;2023-06-14T04:00:40;100263.31;;;15.25;56.00
62333;BME280;48624;49.812;8.562;2023-06-14T04:03:06;100266.94;;;15.15;56.49
62333;BME280;48624;49.812;8.562;2023-06-14T04:05:31;100271.16;;;15.17;56.64
62333;BME280;48624;49.812;8.562;2023-06-14T04:07:58;100266.25;;;15.32;56.05
62333;BME280;48624;49.812;8.562;2023-06-14T04:10:25;100273.53;;;15.40;55.76
62333;BME280;48624;49.812;8.562;2023-06-14T04:12:51;100274.25;;;15.22;56.52
62333;BME280;48624;49.812;8.562;2023-06-14T04:15:17;100281.38;;;15.12;56.96
62333;BME280;48624;49.812;8.562;2023-06-14T04:17:42;100271.19;;;15.27;56.95
62333;BME280;48624;49.812;8.562;2023-06-14T04:20:07;100277.19;;;15.59;55.49
62333;BME280;48624;49.812;8.562;2023-06-14T04:22:34;100273.28;;;15.43;56.46
62333;BME280;48624;49.812;8.562;2023-06-14T04:25:01;100271.84;;;15.78;55.17
62333;BME280;48624;49.812;8.562;2023-06-14T04:27:27;100279.28;;;15.85;55.13
62333;BME280;48624;49.812;8.562;2023-06-14T04:29:54;100282.50;;;15.78;55.81
62333;BME280;48624;49.812;8.562;2023-06-14T04:32:28;100289.66;;;16.17;54.26
62333;BME280;48624;49.812;8.562;2023-06-14T04:34:59;100286.47;;;16.04;54.40
62333;BME280;48624;49.812;8.562;2023-06-14T04:37:28;100281.56;;;15.79;55.67
62333;BME280;48624;49.812;8.562;2023-06-14T04:39:55;100292.06;;;16.11;54.31
62333;BME280;48624;49.812;8.562;2023-06-14T04:42:23;100292.66;;;15.75;55.63
62333;BME280;48624;49.812;8.562;2023-06-14T04:44:55;100298.56;;;15.68;56.25
62333;BME280;48624;49.812;8.562;2023-06-14T04:47:21;100295.88;;;15.98;54.90
62333;BME280;48624;49.812;8.562;2023-06-14T04:49:46;100306.56;;;15.88;56.24
62333;BME280;48624;49.812;8.562;2023-06-14T04:52:12;100302.19;;;15.97;55.32
62333;BME280;48624;49.812;8.562;2023-06-14T04:54:39;100300.94;;;16.01;56.01
62333;BME280;48624;49.812;8.562;2023-06-14T04:57:06;100303.94;;;16.36;53.90
62333;BME280;48624;49.812;8.562;2023-06-14T04:59:31;100308.78;;;16.22;54.10
62333;BME280;48624;49.812;8.562;2023-06-14T05:02:01;100313.81;;;16.26;53.69
62333;BME280;48624;49.812;8.562;2023-06-14T05:04:27;100314.63;;;16.74;51.87
62333;BME280;48624;49.812;8.562;2023-06-14T05:06:53;100316.78;;;16.70;51.87
62333;BME280;48624;49.812;8.562;2023-06-14T05:09:20;100317.66;;;16.61;52.17
62333;BME280;48624;49.812;8.562;2023-06-14T05:11:46;100320.03;;;16.92;51.27
62333;BME280;48624;49.812;8.562;2023-06-14T05:14:13;100317.59;;;16.99;51.19
62333;BME280;48624;49.812;8.562;2023-06-14T05:16:38;100313.28;;;16.88;51.20
62333;BME280;48624;49.812;8.562;2023-06-14T05:19:04;100321.56;;;16.95;51.62
62333;BME280;48624;49.812;8.562;2023-06-14T05:21:30;100321.03;;;17.19;51.08
62333;BME280;48624;49.812;8.562;2023-06-14T05:23:55;100316.38;;;17.21;50.71
62333;BME280;48624;49.812;8.562;2023-06-14T05:26:21;100322.88;;;17.18;50.70
62333;BME280;48624;49.812;8.562;2023-06-14T05:28:48;100324.16;;;17.14;51.37
62333;BME280;48624;49.812;8.562;2023-06-14T05:31:14;100330.94;;;17.37;50.45
62333;BME280;48624;49.812;8.562;2023-06-14T05:33:40;100325.34;;;17.48;50.09
62333;BME280;48624;49.812;8.562;2023-06-14T05:36:05;100340.50;;;17.57;50.29
62333;BME280;48624;49.812;8.562;2023-06-14T05:38:30;100339.72;;;17.47;50.22
62333;BME280;48624;49.812;8.562;2023-06-14T05:40:55;100341.50;;;17.56;49.97
62333;BME280;48624;49.812;8.562;2023-06-14T05:43:21;100333.47;;;17.56;50.09
62333;BME280;48624;49.812;8.562;2023-06-14T05:45:46;100338.59;;;17.68;50.11
62333;BME280;48624;49.812;8.562;2023-06-14T05:48:12;100343.84;;;17.59;50.04
62333;BME280;48624;49.812;8.562;2023-06-14T05:50:37;100344.84;;;17.95;48.95
62333;BME280;48624;49.812;8.562;2023-06-14T05:53:02;100341.22;;;17.86;49.58
62333;BME280;48624;49.812;8.562;2023-06-14T05:55:27;100350.19;;;17.95;49.09
62333;BME280;48624;49.812;8.562;2023-06-14T05:57:53;100344.75;;;18.05;48.86
62333;BME280;48624;49.812;8.562;2023-06-14T06:00:19;100343.09;;;18.03;48.85
62333;BME280;48624;49.812;8.562;2023-06-14T06:02:45;100348.84;;;18.09;48.78
62333;BME280;48624;49.812;8.562;2023-06-14T06:05:11;100355.06;;;18.36;48.25
62333;BME280;48624;49.812;8.562;2023-06-14T06:07:38;100347.41;;;18.23;48.56
62333;BME280;48624;49.812;8.562;2023-06-14T06:10:05;100350.72;;;18.43;47.89
62333;BME280;48624;49.812;8.562;2023-06-14T06:12:31;100352.91;;;18.48;47.50
62333;BME280;48624;49.812;8.562;2023-06-14T06:14:57;100364.84;;;18.53;47.43
62333;BME280;48624;49.812;8.562;2023-06-14T06:17:23;100346.84;;;18.72;46.83
62333;BME280;48624;49.812;8.562;2023-06-14T06:19:48;100355.59;;;18.74;46.76
62333;BME280;48624;49.812;8.562;2023-06-14T06:22:13;100356.78;;;18.80;46.69
62333;BME280;48624;49.812;8.562;2023-06-14T06:24:38;100354.22;;;19.05;46.54
62333;BME280;48624;49.812;8.562;2023-06-14T06:27:04;100367.56;;;18.88;46.59
62333;BME280;48624;49.812;8.562;2023-06-14T06:29:29;100366.59;;;18.97;46.44
62333;BME280;48624;49.812;8.562;2023-06-14T06:31:55;100367.44;;;18.98;46.35
62333;BME280;48624;49.812;8.562;2023-06-14T06:34:21;100361.13;;;19.07;45.83
62333;BME280;48624;49.812;8.562;2023-06-14T06:36:47;100361.50;;;19.12;45.97
62333;BME280;48624;49.812;8.562;2023-06-14T06:39:13;100372.44;;;19.27;46.33
62333;BME280;48624;49.812;8.562;2023-06-14T06:41:40;100372.41;;;19.19;45.86
62333;BME280;48624;49.812;8.562;2023-06-14T06:44:06;100368.47;;;19.57;45.21
62333;BME280;48624;49.812;8.562;2023-06-14T06:46:32;100374.66;;;19.57;45.81
62333;BME280;48624;49.812;8.562;2023-06-14T06:48:58;100376.03;;;19.61;45.69
62333;BME280;48624;49.812;8.562;2023-06-14T06:51:23;100377.91;;;19.77;45.32
62333;BME280;48624;49.812;8.562;2023-06-14T06:53:52;100377.38;;;19.74;45.21
62333;BME280;48624;49.812;8.562;2023-06-14T06:56:20;100380.75;;;19.84;44.54
62333;BME280;48624;49.812;8.562;2023-06-14T06:58:46;100382.47;;;20.02;44.39
62333;BME280;48624;49.812;8.562;2023-06-14T07:01:12;100388.00;;;20.42;43.06
62333;BME280;48624;49.812;8.562;2023-06-14T07:03:38;100381.31;;;19.96;44.12
62333;BME280;48624;49.812;8.562;2023-06-14T07:06:03;100387.66;;;20.36;43.48
62333;BME280;48624;49.812;8.562;2023-06-14T07:08:29;100383.44;;;20.42;43.52
62333;BME280;48624;49.812;8.562;2023-06-14T07:10:54;100385.22;;;20.66;42.98
62333;BME280;48624;49.812;8.562;2023-06-14T07:13:19;100396.16;;;20.73;43.18
62333;BME280;48624;49.812;8.562;2023-06-14T07:15:45;100396.13;;;20.90;42.72
62333;BME280;48624;49.812;8.562;2023-06-14T07:18:10;100397.09;;;21.05;42.00
62333;BME280;48624;49.812;8.562;2023-06-14T07:20:36;100397.34;;;21.19;42.04
62333;BME280;48624;49.812;8.562;2023-06-14T07:23:03;100395.19;;;21.14;41.98
62333;BME280;48624;49.812;8.562;2023-06-14T07:25:28;100397.94;;;21.38;41.00
62333;BME280;48624;49.812;8.562;2023-06-14T07:27:55;100400.56;;;21.14;41.04
62333;BME280;48624;49.812;8.562;2023-06-14T07:30:20;100397.63;;;21.32;41.00
62333;BME280;48624;49.812;8.562;2023-06-14T07:32:46;100394.22;;;21.39;40.86
62333;BME280;48624;49.812;8.562;2023-06-14T07:35:11;100405.88;;;21.62;40.41
62333;BME280;48624;49.812;8.562;2023-06-14T07:37:36;100397.69;;;21.56;40.57
62333;BME280;48624;49.812;8.562;2023-06-14T07:40:02;100406.91;;;21.61;40.93
62333;BME280;48624;49.812;8.562;2023-06-14T07:42:33;100404.03;;;22.10;39.77
62333;BME280;48624;49.812;8.562;2023-06-14T07:44:58;100415.53;;;21.88;39.73
62333;BME280;48624;49.812;8.562;2023-06-14T07:47:26;100404.41;;;22.07;39.22
62333;BME280;48624;49.812;8.562;2023-06-14T07:49:51;100403.88;;;21.88;40.35
62333;BME280;48624;49.812;8.562;2023-06-14T07:52:16;100405.00;;;21.94;40.43
62333;BME280;48624;49.812;8.562;2023-06-14T07:54:43;100399.44;;;22.18;39.88
62333;BME280;48624;49.812;8.562;2023-06-14T07:57:09;100411.94;;;22.11;39.41
62333;BME280;48624;49.812;8.562;2023-06-14T07:59:35;100406.34;;;22.36;39.67
62333;BME280;48624;49.812;8.562;2023-06-14T08:02:00;100404.72;;;22.12;40.73
62333;BME280;48624;49.812;8.562;2023-06-14T08:04:26;100399.16;;;22.28;40.05
62333;BME280;48624;49.812;8.562;2023-06-14T08:06:51;100398.97;;;22.30;40.30
62333;BME280;48624;49.812;8.562;2023-06-14T08:09:17;100401.75;;;22.60;39.12
62333;BME280;48624;49.812;8.562;2023-06-14T08:11:42;100403.97;;;22.56;38.76
62333;BME280;48624;49.812;8.562;2023-06-14T08:14:08;100401.75;;;22.75;38.29
62333;BME280;48624;49.812;8.562;2023-06-14T08:16:33;100397.28;;;22.97;37.85
62333;BME280;48624;49.812;8.562;2023-06-14T08:18:59;100398.75;;;23.30;36.73
62333;BME280;48624;49.812;8.562;2023-06-14T08:21:24;100394.94;;;23.09;37.40
62333;BME280;48624;49.812;8.562;2023-06-14T08:23:54;100400.75;;;23.43;36.84
62333;BME280;48624;49.812;8.562;2023-06-14T08:26:20;100397.78;;;23.53;36.69
62333;BME280;48624;49.812;8.562;2023-06-14T08:28:46;100396.22;;;23.65;35.17
62333;BME280;48624;49.812;8.562;2023-06-14T08:31:11;100403.00;;;23.98;34.66
62333;BME280;48624;49.812;8.562;2023-06-14T08:33:37;100402.09;;;24.13;34.88
62333;BME280;48624;49.812;8.562;2023-06-14T08:36:04;100401.63;;;24.09;34.77
62333;BME280;48624;49.812;8.562;2023-06-14T08:38:29;100405.81;;;24.11;34.93
62333;BME280;48624;49.812;8.562;2023-06-14T08:40:57;100398.94;;;23.65;34.82
62333;BME280;48624;49.812;8.562;2023-06-14T08:43:23;100400.66;;;23.95;35.11
62333;BME280;48624;49.812;8.562;2023-06-14T08:45:57;100397.31;;;23.93;34.60
62333;BME280;48624;49.812;8.562;2023-06-14T08:48:27;100403.25;;;23.60;35.03
62333;BME280;48624;49.812;8.562;2023-06-14T08:51:01;100408.94;;;24.37;34.39
62333;BME280;48624;49.812;8.562;2023-06-14T08:53:33;100402.03;;;23.84;35.04
62333;BME280;48624;49.812;8.562;2023-06-14T08:56:02;100404.47;;;23.79;34.49
62333;BME280;48624;49.812;8.562;2023-06-14T08:58:33;100407.22;;;23.64;35.19
62333;BME280;48624;49.812;8.562;2023-06-14T09:01:00;100397.50;;;23.69;35.10
62333;BME280;48624;49.812;8.562;2023-06-14T09:03:26;100403.81;;;23.98;35.12
62333;BME280;48624;49.812;8.562;2023-06-14T09:05:56;100398.94;;;23.87;34.90
62333;BME280;48624;49.812;8.562;2023-06-14T09:08:24;100396.63;;;24.06;34.61
62333;BME280;48624;49.812;8.562;2023-06-14T09:10:50;100404.91;;;24.26;34.51
62333;BME280;48624;49.812;8.562;2023-06-14T09:13:16;100405.66;;;24.13;35.04
62333;BME280;48624;49.812;8.562;2023-06-14T09:15:42;100397.88;;;24.32;34.61
62333;BME280;48624;49.812;8.562;2023-06-14T09:18:07;100403.69;;;24.86;34.04
62333;BME280;48624;49.812;8.562;2023-06-14T09:20:32;100403.94;;;24.34;34.87
62333;BME280;48624;49.812;8.562;2023-06-14T09:22:58;100404.06;;;24.83;33.34
62333;BME280;48624;49.812;8.562;2023-06-14T09:25:24;100400.78;;;24.94;33.10
62333;BME280;48624;49.812;8.562;2023-06-14T09:27:51;100409.72;;;25.30;33.12
62333;BME280;48624;49.812;8.562;2023-06-14T09:30:19;100411.88;;;24.35;34.34
62333;BME280;48624;49.812;8.562;2023-06-14T09:32:45;100406.69;;;24.41;34.16
62333;BME280;48624;49.812;8.562;2023-06-14T09:35:10;100415.38;;;24.36;34.09
62333;BME280;48624;49.812;8.562;2023-06-14T09:37:36;100421.56;;;24.51;33.82
62333;BME280;48624;49.812;8.562;2023-06-14T09:40:04;100417.50;;;24.69;33.43
62333;BME280;48624;49.812;8.562;2023-06-14T09:42:29;100416.88;;;24.67;32.77
62333;BME280;48624;49.812;8.562;2023-06-14T09:44:57;100428.34;;;24.41;33.41
62333;BME280;48624;49.812;8.562;2023-06-14T09:47:23;100422.63;;;23.85;35.94
62333;BME280;48624;49.812;8.562;2023-06-14T09:49:51;100417.34;;;24.49;33.97
62333;BME280;48624;49.812;8.562;2023-06-14T09:52:18;100409.09;;;23.85;35.79
62333;BME280;48624;49.812;8.562;2023-06-14T09:54:44;100411.59;;;24.30;34.34
62333;BME280;48624;49.812;8.562;2023-06-14T09:57:15;100418.84;;;24.51;33.76
62333;BME280;48624;49.812;8.562;2023-06-14T09:59:42;100409.16;;;24.71;33.31
62333;BME280;48624;49.812;8.562;2023-06-14T10:02:14;100409.44;;;25.18;32.92
62333;BME280;48624;49.812;8.562;2023-06-14T10:04:46;100398.53;;;25.53;32.47
62333;BME280;48624;49.812;8.562;2023-06-14T10:07:20;100401.56;;;25.30;32.86
62333;BME280;48624;49.812;8.562;2023-06-14T10:09:47;100414.53;;;25.41;32.88
62333;BME280;48624;49.812;8.562;2023-06-14T10:12:16;100406.88;;;24.74;34.04
62333;BME280;48624;49.812;8.562;2023-06-14T10:14:49;100413.84;;;25.26;32.94
62333;BME280;48624;49.812;8.562;2023-06-14T10:17:22;100411.75;;;25.21;32.65
62333;BME280;48624;49.812;8.562;2023-06-14T10:19:57;100402.28;;;25.03;32.91
62333;BME280;48624;49.812;8.562;2023-06-14T10:22:51;100409.09;;;25.34;32.41
62333;BME280;48624;49.812;8.562;2023-06-14T10:25:31;100403.16;;;25.80;31.11
62333;BME280;48624;49.812;8.562;2023-06-14T10:28:21;100399.84;;;25.15;31.49
62333;BME280;48624;49.812;8.562;2023-06-14T10:31:07;100407.78;;;25.17;32.24
62333;BME280;48624;49.812;8.562;2023-06-14T10:33:39;100404.56;;;25.48;32.03
62333;BME280;48624;49.812;8.562;2023-06-14T10:36:30;100416.56;;;24.84;33.61
62333;BME280;48624;49.812;8.562;2023-06-14T10:39:04;100409.84;;;25.77;31.85
62333;BME280;48624;49.812;8.562;2023-06-14T10:41:34;100410.25;;;25.67;31.34
62333;BME280;48624;49.812;8.562;2023-06-14T10:47:09;100408.72;;;25.51;31.36
62333;BME280;48624;49.812;8.562;2023-06-14T10:49:43;100414.66;;;25.75;30.51
62333;BME280;48624;49.812;8.562;2023-06-14T10:52:14;100414.00;;;25.66;30.75
62333;BME280;48624;49.812;8.562;2023-06-14T10:57:20;100400.13;;;25.41;30.72
62333;BME280;48624;49.812;8.562;2023-06-14T10:59:46;100411.19;;;25.39;30.98
62333;BME280;48624;49.812;8.562;2023-06-14T11:05:08;100407.50;;;25.60;30.53
62333;BME280;48624;49.812;8.562;2023-06-14T11:10:37;100410.91;;;25.89;29.78
62333;BME280;48624;49.812;8.562;2023-06-14T11:13:03;100409.66;;;26.06;30.26
62333;BME280;48624;49.812;8.562;2023-06-14T11:15:30;100415.31;;;26.51;29.71
62333;BME280;48624;49.812;8.562;2023-06-14T11:17:56;100416.41;;;26.23;30.22
62333;BME280;48624;49.812;8.562;2023-06-14T11:20:30;100412.22;;;26.21;29.61
62333;BME280;48624;49.812;8.562;2023-06-14T11:22:56;100414.19;;;26.79;29.20
62333;BME280;48624;49.812;8.562;2023-06-14T11:25:22;100408.72;;;27.13;28.57
62333;BME280;48624;49.812;8.562;2023-06-14T11:27:52;100409.69;;;27.64;27.63
62333;BME280;48624;49.812;8.562;2023-06-14T11:30:19;100407.34;;;27.36;27.88
62333;BME280;48624;49.812;8.562;2023-06-14T11:32:48;100417.38;;;27.35;27.77
62333;BME280;48624;49.812;8.562;2023-06-14T11:35:16;100403.84;;;27.67;28.52
62333;BME280;48624;49.812;8.562;2023-06-14T11:37:42;100412.94;;;27.80;28.47
62333;BME280;48624;49.812;8.562;2023-06-14T11:40:10;100409.69;;;27.64;27.71
62333;BME280;48624;49.812;8.562;2023-06-14T11:42:37;100416.84;;;27.59;27.34
62333;BME280;48624;49.812;8.562;2023-06-14T11:45:04;100407.66;;;27.53;27.81
62333;BME280;48624;49.812;8.562;2023-06-14T11:47:35;100400.75;;;28.15;27.11
62333;BME280;48624;49.812;8.562;2023-06-14T11:50:01;100414.09;;;28.48;26.98
62333;BME280;48624;49.812;8.562;2023-06-14T11:52:26;100414.66;;;28.57;26.43
62333;BME280;48624;49.812;8.562;2023-06-14T11:54:53;100415.94;;;27.26;28.35
62333;BME280;48624;49.812;8.562;2023-06-14T11:57:19;100411.31;;;28.04;27.17
62333;BME280;48624;49.812;8.562;2023-06-14T11:59:46;100410.19;;;27.54;27.59
62333;BME280;48624;49.812;8.562;2023-06-14T12:02:15;100406.72;;;27.34;26.99
62333;BME280;48624;49.812;8.562;2023-06-14T12:04:42;100420.19;;;27.15;28.21
62333;BME280;48624;49.812;8.562;2023-06-14T12:07:14;100412.81;;;27.29;27.90
62333;BME280;48624;49.812;8.562;2023-06-14T12:12:24;100410.19;;;27.02;28.20
62333;BME280;48624;49.812;8.562;2023-06-14T12:14:50;100415.03;;;26.86;27.92
62333;BME280;48624;49.812;8.562;2023-06-14T12:17:16;100413.97;;;26.87;27.92
62333;BME280;48624;49.812;8.562;2023-06-14T12:19:43;100402.44;;;27.58;27.01
62333;BME280;48624;49.812;8.562;2023-06-14T12:22:10;100405.16;;;27.58;26.85
62333;BME280;48624;49.812;8.562;2023-06-14T12:24:35;100403.53;;;28.08;26.88
62333;BME280;48624;49.812;8.562;2023-06-14T12:27:01;100409.38;;;28.11;26.94
62333;BME280;48624;49.812;8.562;2023-06-14T12:29:30;100405.97;;;27.59;27.73
62333;BME280;48624;49.812;8.562;2023-06-14T12:31:56;100401.13;;;27.67;27.53
62333;BME280;48624;49.812;8.562;2023-06-14T12:34:28;100408.59;;;27.33;28.31
62333;BME280;48624;49.812;8.562;2023-06-14T12:36:54;100406.25;;;26.91;28.30
62333;BME280;48624;49.812;8.562;2023-06-14T12:39:20;100413.63;;;27.29;27.75
62333;BME280;48624;49.812;8.562;2023-06-14T12:41:46;100405.28;;;27.70;27.64
62333;BME280;48624;49.812;8.562;2023-06-14T12:44:12;100401.47;;;27.78;27.70
62333;BME280;48624;49.812;8.562;2023-06-14T12:46:38;100401.19;;;27.86;28.33
62333;BME280;48624;49.812;8.562;2023-06-14T12:49:08;100395.50;;;27.88;26.95
62333;BME280;48624;49.812;8.562;2023-06-14T12:51:36;100404.94;;;28.61;27.24
62333;BME280;48624;49.812;8.562;2023-06-14T12:54:01;100396.97;;;28.85;26.82
62333;BME280;48624;49.812;8.562;2023-06-14T12:56:27;100402.56;;;28.90;26.82
62333;BME280;48624;49.812;8.562;2023-06-14T12:58:52;100401.03;;;28.57;26.73
62333;BME280;48624;49.812;8.562;2023-06-14T13:01:18;100403.25;;;28.16;27.35
62333;BME280;48624;49.812;8.562;2023-06-14T13:03:48;100397.69;;;28.04;26.49
62333;BME280;48624;49.812;8.562;2023-06-14T13:06:15;100408.13;;;28.07;26.94
62333;BME280;48624;49.812;8.562;2023-06-14T13:08:41;100413.06;;;27.66;27.17